Waterford, Ohio
Current Conditions -  °F | °C
As of 3:53 AM on Wednesday 22 Oct 2014 (Local Time) from KPKB Reporting Station
Overcast Overcast  
Wind Chill:   Ceiling: 800
Heat Index:   Visibility: 10mi
Dew Point:   Wind: 7mph
Humidity: 89%   Direction: 320°NW
Pressure: 30.11"   Gusts: NA
Location:  39.54°N, 81.64°W
Report Text: KPKB 220753Z AUTO 32006KT 10SM OVC008 08/06 A3011 RMK AO2 RAE30 SLP196 P0000 T00780061
Loading
Personal Weather Stations






























Interactive Weather Map
Tropical Storm Tracking
New forecast layout! Learn more

10-Day Weather Forecast

Advertisements
Track Severe Weather on mobile